sensor_id;sensor_type;location;lat;lon;timestamp;temperature;humidity
71839;SHT31;59687;37.520;15.068;2022-11-15T00:02:03;14.22;63.71
71839;SHT31;59687;37.520;15.068;2022-11-15T00:04:50;14.16;63.88
71839;SHT31;59687;37.520;15.068;2022-11-15T00:07:35;14.14;64.16
71839;SHT31;59687;37.520;15.068;2022-11-15T00:10:38;14.14;64.54
71839;SHT31;59687;37.520;15.068;2022-11-15T00:13:24;14.11;65.06
71839;SHT31;59687;37.520;15.068;2022-11-15T00:16:09;14.11;65.27
71839;SHT31;59687;37.520;15.068;2022-11-15T00:18:57;14.08;65.37
71839;SHT31;59687;37.520;15.068;2022-11-15T00:21:43;14.12;65.19
71839;SHT31;59687;37.520;15.068;2022-11-15T00:24:28;14.16;64.93
71839;SHT31;59687;37.520;15.068;2022-11-15T00:27:15;14.12;65.39
71839;SHT31;59687;37.520;15.068;2022-11-15T00:30:00;14.16;65.31
71839;SHT31;59687;37.520;15.068;2022-11-15T00:32:46;14.19;65.26
71839;SHT31;59687;37.520;15.068;2022-11-15T00:35:32;14.23;64.99
71839;SHT31;59687;37.520;15.068;2022-11-15T00:38:18;14.32;64.88
71839;SHT31;59687;37.520;15.068;2022-11-15T00:41:05;14.30;64.67
71839;SHT31;59687;37.520;15.068;2022-11-15T00:43:53;14.32;65.11
71839;SHT31;59687;37.520;15.068;2022-11-15T00:46:38;14.39;65.28
71839;SHT31;59687;37.520;15.068;2022-11-15T00:49:27;14.36;65.28
71839;SHT31;59687;37.520;15.068;2022-11-15T00:52:13;14.33;65.54
71839;SHT31;59687;37.520;15.068;2022-11-15T00:54:58;14.41;65.76
71839;SHT31;59687;37.520;15.068;2022-11-15T00:57:44;14.34;65.51
71839;SHT31;59687;37.520;15.068;2022-11-15T01:00:29;14.34;65.13
71839;SHT31;59687;37.520;15.068;2022-11-15T01:03:15;14.28;65.68
71839;SHT31;59687;37.520;15.068;2022-11-15T01:06:04;14.19;65.72
71839;SHT31;59687;37.520;15.068;2022-11-15T01:08:51;14.12;66.35
71839;SHT31;59687;37.520;15.068;2022-11-15T01:11:36;14.02;66.98
71839;SHT31;59687;37.520;15.068;2022-11-15T01:14:22;14.01;67.21
71839;SHT31;59687;37.520;15.068;2022-11-15T01:17:11;14.01;67.73
71839;SHT31;59687;37.520;15.068;2022-11-15T01:19:57;13.97;68.42
71839;SHT31;59687;37.520;15.068;2022-11-15T01:22:43;13.92;69.37
71839;SHT31;59687;37.520;15.068;2022-11-15T01:25:28;13.82;70.39
71839;SHT31;59687;37.520;15.068;2022-11-15T01:28:14;13.74;70.99
71839;SHT31;59687;37.520;15.068;2022-11-15T01:31:00;13.70;70.70
71839;SHT31;59687;37.520;15.068;2022-11-15T01:33:47;13.82;70.75
71839;SHT31;59687;37.520;15.068;2022-11-15T01:36:32;13.95;71.00
71839;SHT31;59687;37.520;15.068;2022-11-15T01:39:17;14.16;70.17
71839;SHT31;59687;37.520;15.068;2022-11-15T01:42:04;14.02;70.74
71839;SHT31;59687;37.520;15.068;2022-11-15T01:44:51;13.87;70.77
71839;SHT31;59687;37.520;15.068;2022-11-15T01:47:40;13.69;72.10
71839;SHT31;59687;37.520;15.068;2022-11-15T01:50:31;13.73;72.25
71839;SHT31;59687;37.520;15.068;2022-11-15T01:53:19;13.75;72.80
71839;SHT31;59687;37.520;15.068;2022-11-15T01:56:09;13.66;72.26
71839;SHT31;59687;37.520;15.068;2022-11-15T01:58:58;13.60;71.98
71839;SHT31;59687;37.520;15.068;2022-11-15T02:01:45;13.52;72.30
71839;SHT31;59687;37.520;15.068;2022-11-15T02:04:37;13.49;72.58
71839;SHT31;59687;37.520;15.068;2022-11-15T02:07:25;13.36;73.69
71839;SHT31;59687;37.520;15.068;2022-11-15T02:10:21;13.30;74.32
71839;SHT31;59687;37.520;15.068;2022-11-15T02:13:06;13.23;75.32
71839;SHT31;59687;37.520;15.068;2022-11-15T02:35:20;13.08;77.09
71839;SHT31;59687;37.520;15.068;2022-11-15T02:38:36;13.05;77.50
71839;SHT31;59687;37.520;15.068;2022-11-15T02:41:55;13.05;77.70
71839;SHT31;59687;37.520;15.068;2022-11-15T02:44:45;13.05;77.83
71839;SHT31;59687;37.520;15.068;2022-11-15T02:47:34;13.04;77.80
71839;SHT31;59687;37.520;15.068;2022-11-15T02:50:25;12.98;77.77
71839;SHT31;59687;37.520;15.068;2022-11-15T02:53:14;12.98;77.89
71839;SHT31;59687;37.520;15.068;2022-11-15T02:56:00;12.92;77.77
71839;SHT31;59687;37.520;15.068;2022-11-15T02:59:56;12.87;77.89
71839;SHT31;59687;37.520;15.068;2022-11-15T03:08:22;12.85;78.26
71839;SHT31;59687;37.520;15.068;2022-11-15T03:11:16;12.79;78.15
71839;SHT31;59687;37.520;15.068;2022-11-15T03:14:12;12.77;78.20
71839;SHT31;59687;37.520;15.068;2022-11-15T03:17:37;12.74;77.92
71839;SHT31;59687;37.520;15.068;2022-11-15T03:20:25;12.77;77.93
71839;SHT31;59687;37.520;15.068;2022-11-15T03:23:13;12.73;77.66
71839;SHT31;59687;37.520;15.068;2022-11-15T03:25:59;12.74;77.39
71839;SHT31;59687;37.520;15.068;2022-11-15T03:28:53;12.74;77.50
71839;SHT31;59687;37.520;15.068;2022-11-15T03:31:44;12.77;77.79
71839;SHT31;59687;37.520;15.068;2022-11-15T03:35:07;12.76;77.95
71839;SHT31;59687;37.520;15.068;2022-11-15T03:38:01;12.79;78.04
71839;SHT31;59687;37.520;15.068;2022-11-15T03:40:55;12.76;78.44
71839;SHT31;59687;37.520;15.068;2022-11-15T03:43:57;12.73;78.69
71839;SHT31;59687;37.520;15.068;2022-11-15T03:47:00;12.72;78.79
71839;SHT31;59687;37.520;15.068;2022-11-15T03:49:58;12.68;78.78
71839;SHT31;59687;37.520;15.068;2022-11-15T03:52:47;12.72;78.94
71839;SHT31;59687;37.520;15.068;2022-11-15T03:55:33;12.67;78.73
71839;SHT31;59687;37.520;15.068;2022-11-15T03:58:19;12.60;78.33
71839;SHT31;59687;37.520;15.068;2022-11-15T04:01:05;12.59;77.92
71839;SHT31;59687;37.520;15.068;2022-11-15T04:03:51;12.57;77.39
71839;SHT31;59687;37.520;15.068;2022-11-15T04:06:38;12.53;76.58
71839;SHT31;59687;37.520;15.068;2022-11-15T04:09:23;12.56;75.86
71839;SHT31;59687;37.520;15.068;2022-11-15T04:12:09;12.55;75.40
71839;SHT31;59687;37.520;15.068;2022-11-15T04:14:54;12.55;75.23
71839;SHT31;59687;37.520;15.068;2022-11-15T04:17:55;12.53;75.20
71839;SHT31;59687;37.520;15.068;2022-11-15T04:20:41;12.56;75.34
71839;SHT31;59687;37.520;15.068;2022-11-15T04:23:44;12.56;75.26
71839;SHT31;59687;37.520;15.068;2022-11-15T04:26:48;12.55;75.89
71839;SHT31;59687;37.520;15.068;2022-11-15T04:29:34;12.56;75.94
71839;SHT31;59687;37.520;15.068;2022-11-15T04:32:20;12.57;76.43
71839;SHT31;59687;37.520;15.068;2022-11-15T04:35:06;12.57;76.61
71839;SHT31;59687;37.520;15.068;2022-11-15T04:37:52;12.59;77.31
71839;SHT31;59687;37.520;15.068;2022-11-15T04:40:38;12.60;77.72
71839;SHT31;59687;37.520;15.068;2022-11-15T04:43:25;12.59;78.18
71839;SHT31;59687;37.520;15.068;2022-11-15T04:46:11;12.61;78.56
71839;SHT31;59687;37.520;15.068;2022-11-15T04:48:56;12.57;78.57
71839;SHT31;59687;37.520;15.068;2022-11-15T04:51:42;12.57;78.79
71839;SHT31;59687;37.520;15.068;2022-11-15T04:54:28;12.55;79.12
71839;SHT31;59687;37.520;15.068;2022-11-15T04:57:15;12.47;79.11
71839;SHT31;59687;37.520;15.068;2022-11-15T05:00:02;12.50;79.67
71839;SHT31;59687;37.520;15.068;2022-11-15T05:02:48;12.49;79.74
71839;SHT31;59687;37.520;15.068;2022-11-15T05:05:52;12.47;79.89
71839;SHT31;59687;37.520;15.068;2022-11-15T05:08:37;12.45;80.22
71839;SHT31;59687;37.520;15.068;2022-11-15T05:11:23;12.45;80.30
71839;SHT31;59687;37.520;15.068;2022-11-15T05:14:09;12.47;80.53
71839;SHT31;59687;37.520;15.068;2022-11-15T05:16:55;12.46;80.72
71839;SHT31;59687;37.520;15.068;2022-11-15T05:19:41;12.49;81.06
71839;SHT31;59687;37.520;15.068;2022-11-15T05:22:27;12.45;81.10
71839;SHT31;59687;37.520;15.068;2022-11-15T05:25:12;12.49;81.26
71839;SHT31;59687;37.520;15.068;2022-11-15T05:27:59;12.52;81.44
71839;SHT31;59687;37.520;15.068;2022-11-15T05:30:44;12.52;81.65
71839;SHT31;59687;37.520;15.068;2022-11-15T05:33:31;12.60;82.02
71839;SHT31;59687;37.520;15.068;2022-11-15T05:36:41;12.67;81.96
71839;SHT31;59687;37.520;15.068;2022-11-15T05:39:26;12.74;82.10
71839;SHT31;59687;37.520;15.068;2022-11-15T05:42:13;12.83;82.16
71839;SHT31;59687;37.520;15.068;2022-11-15T05:45:01;13.01;82.35
71839;SHT31;59687;37.520;15.068;2022-11-15T05:47:49;13.23;82.35
71839;SHT31;59687;37.520;15.068;2022-11-15T05:50:41;13.53;81.30
71839;SHT31;59687;37.520;15.068;2022-11-15T05:53:30;13.80;80.47
71839;SHT31;59687;37.520;15.068;2022-11-15T05:56:15;14.28;80.14
71839;SHT31;59687;37.520;15.068;2022-11-15T05:59:02;14.91;78.64
71839;SHT31;59687;37.520;15.068;2022-11-15T06:01:48;15.67;76.14
71839;SHT31;59687;37.520;15.068;2022-11-15T06:04:35;16.49;73.88
71839;SHT31;59687;37.520;15.068;2022-11-15T06:07:21;17.22;70.94
71839;SHT31;59687;37.520;15.068;2022-11-15T06:10:07;17.91;69.32
71839;SHT31;59687;37.520;15.068;2022-11-15T06:13:01;18.18;67.37
71839;SHT31;59687;37.520;15.068;2022-11-15T06:15:47;18.27;67.12
71839;SHT31;59687;37.520;15.068;2022-11-15T06:18:35;18.37;66.69
71839;SHT31;59687;37.520;15.068;2022-11-15T06:21:21;18.34;66.42
71839;SHT31;59687;37.520;15.068;2022-11-15T06:24:07;18.27;66.72
71839;SHT31;59687;37.520;15.068;2022-11-15T06:26:52;18.16;67.21
71839;SHT31;59687;37.520;15.068;2022-11-15T06:29:38;18.12;67.73
71839;SHT31;59687;37.520;15.068;2022-11-15T06:32:24;18.22;68.21
71839;SHT31;59687;37.520;15.068;2022-11-15T06:35:11;18.41;67.64
71839;SHT31;59687;37.520;15.068;2022-11-15T06:38:02;18.55;67.31
71839;SHT31;59687;37.520;15.068;2022-11-15T06:40:48;18.62;66.92
71839;SHT31;59687;37.520;15.068;2022-11-15T06:43:36;18.60;66.93
71839;SHT31;59687;37.520;15.068;2022-11-15T06:46:21;18.64;67.34
71839;SHT31;59687;37.520;15.068;2022-11-15T06:49:07;18.72;67.25
71839;SHT31;59687;37.520;15.068;2022-11-15T06:51:53;18.81;67.11
71839;SHT31;59687;37.520;15.068;2022-11-15T06:54:40;18.92;67.34
71839;SHT31;59687;37.520;15.068;2022-11-15T06:57:25;18.96;67.39
71839;SHT31;59687;37.520;15.068;2022-11-15T07:00:11;19.02;67.37
71839;SHT31;59687;37.520;15.068;2022-11-15T07:02:59;19.09;67.60
71839;SHT31;59687;37.520;15.068;2022-11-15T07:05:56;19.14;67.62
71839;SHT31;59687;37.520;15.068;2022-11-15T07:08:44;19.21;67.39
71839;SHT31;59687;37.520;15.068;2022-11-15T07:11:32;19.35;67.39
71839;SHT31;59687;37.520;15.068;2022-11-15T07:14:18;19.50;67.07
71839;SHT31;59687;37.520;15.068;2022-11-15T07:17:04;19.83;67.17
71839;SHT31;59687;37.520;15.068;2022-11-15T07:19:51;20.26;65.93
71839;SHT31;59687;37.520;15.068;2022-11-15T07:22:38;20.64;64.85
71839;SHT31;59687;37.520;15.068;2022-11-15T07:25:24;20.95;63.87
71839;SHT31;59687;37.520;15.068;2022-11-15T07:28:10;21.52;63.64
71839;SHT31;59687;37.520;15.068;2022-11-15T07:30:55;22.14;61.15
71839;SHT31;59687;37.520;15.068;2022-11-15T07:33:41;22.69;59.65
71839;SHT31;59687;37.520;15.068;2022-11-15T07:36:27;23.35;57.96
71839;SHT31;59687;37.520;15.068;2022-11-15T07:39:13;23.86;56.08
71839;SHT31;59687;37.520;15.068;2022-11-15T07:42:00;23.92;55.07
71839;SHT31;59687;37.520;15.068;2022-11-15T07:45:05;24.01;55.28
71839;SHT31;59687;37.520;15.068;2022-11-15T07:47:50;24.41;54.30
71839;SHT31;59687;37.520;15.068;2022-11-15T07:50:40;25.13;53.23
71839;SHT31;59687;37.520;15.068;2022-11-15T07:53:26;26.00;51.08
71839;SHT31;59687;37.520;15.068;2022-11-15T07:56:11;26.62;48.77
71839;SHT31;59687;37.520;15.068;2022-11-15T07:58:57;26.98;47.71
71839;SHT31;59687;37.520;15.068;2022-11-15T08:01:44;27.01;47.39
71839;SHT31;59687;37.520;15.068;2022-11-15T08:04:32;27.34;46.57
71839;SHT31;59687;37.520;15.068;2022-11-15T08:07:18;26.91;47.70
71839;SHT31;59687;37.520;15.068;2022-11-15T08:10:04;27.16;47.13
71839;SHT31;59687;37.520;15.068;2022-11-15T08:13:02;26.84;46.41
71839;SHT31;59687;37.520;15.068;2022-11-15T08:15:48;26.80;47.33
71839;SHT31;59687;37.520;15.068;2022-11-15T08:18:36;26.96;47.86
71839;SHT31;59687;37.520;15.068;2022-11-15T08:21:21;26.83;47.55
71839;SHT31;59687;37.520;15.068;2022-11-15T08:24:09;27.14;45.58
71839;SHT31;59687;37.520;15.068;2022-11-15T08:26:55;27.07;44.59
71839;SHT31;59687;37.520;15.068;2022-11-15T08:29:42;26.98;45.54
71839;SHT31;59687;37.520;15.068;2022-11-15T08:32:27;26.63;46.31
71839;SHT31;59687;37.520;15.068;2022-11-15T08:35:13;26.21;45.90
71839;SHT31;59687;37.520;15.068;2022-11-15T08:38:00;26.11;46.86
71839;SHT31;59687;37.520;15.068;2022-11-15T08:40:46;26.04;47.56
71839;SHT31;59687;37.520;15.068;2022-11-15T08:43:33;25.66;48.71
71839;SHT31;59687;37.520;15.068;2022-11-15T08:46:20;25.58;49.28
71839;SHT31;59687;37.520;15.068;2022-11-15T08:49:05;25.76;48.24
71839;SHT31;59687;37.520;15.068;2022-11-15T08:51:50;26.34;47.53
71839;SHT31;59687;37.520;15.068;2022-11-15T08:54:36;27.07;46.25
71839;SHT31;59687;37.520;15.068;2022-11-15T08:57:21;27.58;44.34
71839;SHT31;59687;37.520;15.068;2022-11-15T09:00:07;27.86;43.29
71839;SHT31;59687;37.520;15.068;2022-11-15T09:02:53;27.80;43.72
71839;SHT31;59687;37.520;15.068;2022-11-15T09:05:38;27.12;44.97
71839;SHT31;59687;37.520;15.068;2022-11-15T09:08:25;27.67;44.30
71839;SHT31;59687;37.520;15.068;2022-11-15T09:11:30;27.69;44.02
71839;SHT31;59687;37.520;15.068;2022-11-15T09:14:15;27.25;44.63
71839;SHT31;59687;37.520;15.068;2022-11-15T09:17:01;26.53;46.08
71839;SHT31;59687;37.520;15.068;2022-11-15T09:19:47;26.07;46.87
71839;SHT31;59687;37.520;15.068;2022-11-15T09:22:33;25.93;47.41
71839;SHT31;59687;37.520;15.068;2022-11-15T09:25:18;25.80;46.83
71839;SHT31;59687;37.520;15.068;2022-11-15T09:28:07;25.70;47.01
71839;SHT31;59687;37.520;15.068;2022-11-15T09:31:02;25.87;46.44
71839;SHT31;59687;37.520;15.068;2022-11-15T09:33:48;26.04;46.37
71839;SHT31;59687;37.520;15.068;2022-11-15T09:36:35;26.14;45.95
71839;SHT31;59687;37.520;15.068;2022-11-15T09:39:21;27.01;44.62
71839;SHT31;59687;37.520;15.068;2022-11-15T09:42:32;26.89;45.30
71839;SHT31;59687;37.520;15.068;2022-11-15T09:45:36;27.70;44.05
71839;SHT31;59687;37.520;15.068;2022-11-15T09:48:57;28.73;41.64
71839;SHT31;59687;37.520;15.068;2022-11-15T09:51:40;29.63;40.02
71839;SHT31;59687;37.520;15.068;2022-11-15T10:00:33;29.25;40.11
71839;SHT31;59687;37.520;15.068;2022-11-15T10:03:15;29.62;39.61
71839;SHT31;59687;37.520;15.068;2022-11-15T10:05:46;30.53;37.86
71839;SHT31;59687;37.520;15.068;2022-11-15T10:08:28;30.86;37.32
71839;SHT31;59687;37.520;15.068;2022-11-15T10:11:14;31.32;36.93
71839;SHT31;59687;37.520;15.068;2022-11-15T10:14:08;31.54;35.65
71839;SHT31;59687;37.520;15.068;2022-11-15T10:20:25;31.28;36.10
71839;SHT31;59687;37.520;15.068;2022-11-15T10:22:45;30.72;36.35
71839;SHT31;59687;37.520;15.068;2022-11-15T10:25:30;29.86;37.74
71839;SHT31;59687;37.520;15.068;2022-11-15T10:28:09;28.66;39.12
71839;SHT31;59687;37.520;15.068;2022-11-15T10:30:50;28.04;40.51
71839;SHT31;59687;37.520;15.068;2022-11-15T10:33:38;27.11;40.93
71839;SHT31;59687;37.520;15.068;2022-11-15T10:38:51;26.57;41.79
71839;SHT31;59687;37.520;15.068;2022-11-15T10:41:35;26.48;43.07
71839;SHT31;59687;37.520;15.068;2022-11-15T10:46:47;26.87;40.93
71839;SHT31;59687;37.520;15.068;2022-11-15T10:52:15;27.42;37.74
71839;SHT31;59687;37.520;15.068;2022-11-15T10:54:45;27.89;36.83
71839;SHT31;59687;37.520;15.068;2022-11-15T10:57:21;28.05;35.59
71839;SHT31;59687;37.520;15.068;2022-11-15T10:59:51;28.81;33.92
71839;SHT31;59687;37.520;15.068;2022-11-15T11:02:29;28.15;34.73
71839;SHT31;59687;37.520;15.068;2022-11-15T11:04:58;28.31;34.64
71839;SHT31;59687;37.520;15.068;2022-11-15T11:07:30;28.31;34.84
71839;SHT31;59687;37.520;15.068;2022-11-15T11:10:05;29.48;33.10
71839;SHT31;59687;37.520;15.068;2022-11-15T11:13:28;27.55;35.69
71839;SHT31;59687;37.520;15.068;2022-11-15T11:16:08;29.07;33.34
71839;SHT31;59687;37.520;15.068;2022-11-15T11:22:18;29.42;32.67
71839;SHT31;59687;37.520;15.068;2022-11-15T11:33:30;27.86;32.30
71839;SHT31;59687;37.520;15.068;2022-11-15T11:36:25;27.73;32.56
71839;SHT31;59687;37.520;15.068;2022-11-15T11:41:53;30.69;29.66
71839;SHT31;59687;37.520;15.068;2022-11-15T11:44:32;33.24;25.68
71839;SHT31;59687;37.520;15.068;2022-11-15T11:47:23;33.19;24.75
71839;SHT31;59687;37.520;15.068;2022-11-15T11:49:53;32.60;24.84
71839;SHT31;59687;37.520;15.068;2022-11-15T11:52:29;33.36;24.49
71839;SHT31;59687;37.520;15.068;2022-11-15T11:55:34;35.66;22.10
71839;SHT31;59687;37.520;15.068;2022-11-15T11:58:40;39.06;19.19
71839;SHT31;59687;37.520;15.068;2022-11-15T12:01:20;38.53;18.86
71839;SHT31;59687;37.520;15.068;2022-11-15T12:07:01;40.89;16.82
71839;SHT31;59687;37.520;15.068;2022-11-15T12:09:59;36.86;20.18
71839;SHT31;59687;37.520;15.068;2022-11-15T12:12:44;35.00;25.65
71839;SHT31;59687;37.520;15.068;2022-11-15T12:15:21;36.24;24.00
71839;SHT31;59687;37.520;15.068;2022-11-15T12:17:49;34.94;24.83
71839;SHT31;59687;37.520;15.068;2022-11-15T12:20:25;34.73;26.06
71839;SHT31;59687;37.520;15.068;2022-11-15T12:26:26;33.91;28.33
71839;SHT31;59687;37.520;15.068;2022-11-15T12:29:16;32.91;29.41
71839;SHT31;59687;37.520;15.068;2022-11-15T12:31:50;32.01;30.96
71839;SHT31;59687;37.520;15.068;2022-11-15T12:36:50;31.67;32.06
71839;SHT31;59687;37.520;15.068;2022-11-15T12:39:18;30.35;34.43
71839;SHT31;59687;37.520;15.068;2022-11-15T12:52:07;27.66;42.05
71839;SHT31;59687;37.520;15.068;2022-11-15T12:59:59;31.26;35.96
71839;SHT31;59687;37.520;15.068;2022-11-15T13:02:38;30.02;37.43
71839;SHT31;59687;37.520;15.068;2022-11-15T13:17:49;25.11;45.95
71839;SHT31;59687;37.520;15.068;2022-11-15T13:20:27;25.66;45.26
71839;SHT31;59687;37.520;15.068;2022-11-15T13:23:15;26.96;42.77
71839;SHT31;59687;37.520;15.068;2022-11-15T13:26:12;29.22;38.72
71839;SHT31;59687;37.520;15.068;2022-11-15T13:28:48;30.22;35.55
71839;SHT31;59687;37.520;15.068;2022-11-15T13:31:34;30.91;34.73
71839;SHT31;59687;37.520;15.068;2022-11-15T13:34:16;31.28;34.19
71839;SHT31;59687;37.520;15.068;2022-11-15T13:37:02;29.77;36.37
71839;SHT31;59687;37.520;15.068;2022-11-15T13:39:34;27.76;39.80
71839;SHT31;59687;37.520;15.068;2022-11-15T13:42:04;27.18;41.00
71839;SHT31;59687;37.520;15.068;2022-11-15T13:44:33;26.39;42.93
71839;SHT31;59687;37.520;15.068;2022-11-15T13:47:14;25.45;44.68
71839;SHT31;59687;37.520;15.068;2022-11-15T13:49:42;25.20;45.46
71839;SHT31;59687;37.520;15.068;2022-11-15T13:52:12;25.66;44.77
71839;SHT31;59687;37.520;15.068;2022-11-15T13:57:23;27.41;41.42
71839;SHT31;59687;37.520;15.068;2022-11-15T13:59:57;26.97;41.75
71839;SHT31;59687;37.520;15.068;2022-11-15T14:02:32;27.21;41.78
71839;SHT31;59687;37.520;15.068;2022-11-15T14:05:17;27.15;41.35
71839;SHT31;59687;37.520;15.068;2022-11-15T14:07:59;26.31;42.08
71839;SHT31;59687;37.520;15.068;2022-11-15T14:10:38;25.55;43.69
71839;SHT31;59687;37.520;15.068;2022-11-15T14:13:27;24.77;46.05
71839;SHT31;59687;37.520;15.068;2022-11-15T14:16:12;25.07;45.00
71839;SHT31;59687;37.520;15.068;2022-11-15T14:18:48;24.63;45.38
71839;SHT31;59687;37.520;15.068;2022-11-15T14:21:19;24.14;46.40
71839;SHT31;59687;37.520;15.068;2022-11-15T14:23:46;23.67;47.85
71839;SHT31;59687;37.520;15.068;2022-11-15T14:26:33;23.20;48.49
71839;SHT31;59687;37.520;15.068;2022-11-15T14:31:50;22.68;50.41
71839;SHT31;59687;37.520;15.068;2022-11-15T14:34:17;22.47;52.41
71839;SHT31;59687;37.520;15.068;2022-11-15T14:36:44;22.14;56.61
71839;SHT31;59687;37.520;15.068;2022-11-15T14:39:11;21.83;58.14
71839;SHT31;59687;37.520;15.068;2022-11-15T14:41:38;21.51;59.76
71839;SHT31;59687;37.520;15.068;2022-11-15T14:44:10;21.27;60.97
71839;SHT31;59687;37.520;15.068;2022-11-15T14:46:37;21.10;61.59
71839;SHT31;59687;37.520;15.068;2022-11-15T14:49:04;20.97;62.11
71839;SHT31;59687;37.520;15.068;2022-11-15T14:51:31;20.82;62.74
71839;SHT31;59687;37.520;15.068;2022-11-15T14:54:00;20.67;63.19
71839;SHT31;59687;37.520;15.068;2022-11-15T14:56:28;20.58;63.46
71839;SHT31;59687;37.520;15.068;2022-11-15T14:58:54;20.54;63.93
71839;SHT31;59687;37.520;15.068;2022-11-15T15:01:25;20.56;63.84
71839;SHT31;59687;37.520;15.068;2022-11-15T15:03:54;20.62;63.52
71839;SHT31;59687;37.520;15.068;2022-11-15T15:06:25;20.59;63.62
71839;SHT31;59687;37.520;15.068;2022-11-15T15:08:52;20.54;63.56
71839;SHT31;59687;37.520;15.068;2022-11-15T15:11:40;20.43;64.25
71839;SHT31;59687;37.520;15.068;2022-11-15T15:14:07;20.33;64.22
71839;SHT31;59687;37.520;15.068;2022-11-15T15:16:37;20.21;64.52
71839;SHT31;59687;37.520;15.068;2022-11-15T15:19:04;20.12;65.59
71839;SHT31;59687;37.520;15.068;2022-11-15T15:21:31;20.00;65.91
71839;SHT31;59687;37.520;15.068;2022-11-15T15:24:02;19.92;66.05
71839;SHT31;59687;37.520;15.068;2022-11-15T15:26:30;19.82;66.53
71839;SHT31;59687;37.520;15.068;2022-11-15T15:29:03;19.72;66.67
71839;SHT31;59687;37.520;15.068;2022-11-15T15:31:30;19.66;66.78
71839;SHT31;59687;37.520;15.068;2022-11-15T15:33:59;19.54;67.38
71839;SHT31;59687;37.520;15.068;2022-11-15T15:36:28;19.46;67.70
71839;SHT31;59687;37.520;15.068;2022-11-15T15:38:55;19.41;67.48
71839;SHT31;59687;37.520;15.068;2022-11-15T15:41:25;19.32;67.71
71839;SHT31;59687;37.520;15.068;2022-11-15T15:43:58;19.23;68.15
71839;SHT31;59687;37.520;15.068;2022-11-15T15:46:25;19.12;68.64
71839;SHT31;59687;37.520;15.068;2022-11-15T15:48:52;19.00;68.85
71839;SHT31;59687;37.520;15.068;2022-11-15T15:51:21;18.86;69.37
71839;SHT31;59687;37.520;15.068;2022-11-15T15:53:48;18.78;70.15
71839;SHT31;59687;37.520;15.068;2022-11-15T15:56:20;18.72;70.28
71839;SHT31;59687;37.520;15.068;2022-11-15T15:58:47;18.62;70.56
71839;SHT31;59687;37.520;15.068;2022-11-15T16:01:17;18.57;70.75
71839;SHT31;59687;37.520;15.068;2022-11-15T16:03:46;18.50;71.04
71839;SHT31;59687;37.520;15.068;2022-11-15T16:06:33;18.43;71.29
71839;SHT31;59687;37.520;15.068;2022-11-15T16:09:03;18.41;71.65
71839;SHT31;59687;37.520;15.068;2022-11-15T16:11:48;18.30;71.87
71839;SHT31;59687;37.520;15.068;2022-11-15T16:14:15;18.26;72.10
71839;SHT31;59687;37.520;15.068;2022-11-15T16:16:42;18.20;71.87
71839;SHT31;59687;37.520;15.068;2022-11-15T16:19:23;18.07;71.28
71839;SHT31;59687;37.520;15.068;2022-11-15T16:21:51;18.03;70.80
71839;SHT31;59687;37.520;15.068;2022-11-15T16:24:21;18.00;70.15
71839;SHT31;59687;37.520;15.068;2022-11-15T16:26:51;17.98;69.90
71839;SHT31;59687;37.520;15.068;2022-11-15T16:29:19;17.99;69.55
71839;SHT31;59687;37.520;15.068;2022-11-15T16:31:45;17.98;69.67
71839;SHT31;59687;37.520;15.068;2022-11-15T16:34:14;17.98;69.09
71839;SHT31;59687;37.520;15.068;2022-11-15T16:36:43;17.99;69.17
71839;SHT31;59687;37.520;15.068;2022-11-15T16:39:11;18.00;68.98
71839;SHT31;59687;37.520;15.068;2022-11-15T16:41:43;18.00;69.15
71839;SHT31;59687;37.520;15.068;2022-11-15T16:44:13;18.02;69.26
71839;SHT31;59687;37.520;15.068;2022-11-15T16:46:41;18.00;69.30
71839;SHT31;59687;37.520;15.068;2022-11-15T16:49:13;18.00;69.51
71839;SHT31;59687;37.520;15.068;2022-11-15T16:51:41;17.99;69.39
71839;SHT31;59687;37.520;15.068;2022-11-15T16:54:14;17.93;69.35
71839;SHT31;59687;37.520;15.068;2022-11-15T16:56:44;17.95;69.25
71839;SHT31;59687;37.520;15.068;2022-11-15T16:59:15;17.95;69.13
71839;SHT31;59687;37.520;15.068;2022-11-15T17:01:46;18.00;68.96
71839;SHT31;59687;37.520;15.068;2022-11-15T17:04:19;17.99;69.11
71839;SHT31;59687;37.520;15.068;2022-11-15T17:06:49;17.99;69.40
71839;SHT31;59687;37.520;15.068;2022-11-15T17:09:20;17.99;69.99
71839;SHT31;59687;37.520;15.068;2022-11-15T17:11:52;18.03;70.32
71839;SHT31;59687;37.520;15.068;2022-11-15T17:14:21;18.05;70.67
71839;SHT31;59687;37.520;15.068;2022-11-15T17:16:48;18.00;71.18
71839;SHT31;59687;37.520;15.068;2022-11-15T17:19:18;17.98;71.71
71839;SHT31;59687;37.520;15.068;2022-11-15T17:21:47;17.93;72.10
71839;SHT31;59687;37.520;15.068;2022-11-15T17:24:18;18.00;72.69
71839;SHT31;59687;37.520;15.068;2022-11-15T17:26:48;18.02;73.82
71839;SHT31;59687;37.520;15.068;2022-11-15T17:29:15;18.03;73.98
71839;SHT31;59687;37.520;15.068;2022-11-15T17:31:42;18.02;74.33
71839;SHT31;59687;37.520;15.068;2022-11-15T17:34:12;17.96;74.36
71839;SHT31;59687;37.520;15.068;2022-11-15T17:36:40;17.92;74.44
71839;SHT31;59687;37.520;15.068;2022-11-15T17:39:06;17.91;74.39
71839;SHT31;59687;37.520;15.068;2022-11-15T17:41:37;17.91;74.57
71839;SHT31;59687;37.520;15.068;2022-11-15T17:44:05;17.82;74.74
71839;SHT31;59687;37.520;15.068;2022-11-15T17:46:32;17.79;74.93
71839;SHT31;59687;37.520;15.068;2022-11-15T17:49:03;17.68;75.45
71839;SHT31;59687;37.520;15.068;2022-11-15T17:51:32;17.68;75.63
71839;SHT31;59687;37.520;15.068;2022-11-15T17:53:59;17.67;75.78
71839;SHT31;59687;37.520;15.068;2022-11-15T17:56:28;17.65;75.99
71839;SHT31;59687;37.520;15.068;2022-11-15T17:59:00;17.60;75.63
71839;SHT31;59687;37.520;15.068;2022-11-15T18:01:36;17.50;76.14
71839;SHT31;59687;37.520;15.068;2022-11-15T18:04:06;17.50;76.44
71839;SHT31;59687;37.520;15.068;2022-11-15T18:06:37;17.40;76.74
71839;SHT31;59687;37.520;15.068;2022-11-15T18:09:07;17.38;76.93
71839;SHT31;59687;37.520;15.068;2022-11-15T18:11:40;17.38;76.90
71839;SHT31;59687;37.520;15.068;2022-11-15T18:14:12;17.33;77.19
71839;SHT31;59687;37.520;15.068;2022-11-15T18:16:40;17.31;77.41
71839;SHT31;59687;37.520;15.068;2022-11-15T18:19:11;17.34;77.74
71839;SHT31;59687;37.520;15.068;2022-11-15T18:21:43;17.31;78.06
71839;SHT31;59687;37.520;15.068;2022-11-15T18:24:27;17.24;78.53
71839;SHT31;59687;37.520;15.068;2022-11-15T18:26:56;17.23;78.84
71839;SHT31;59687;37.520;15.068;2022-11-15T18:29:24;17.20;79.05